createdAt,value
2023-04-15T00:00:15.963Z,4.54
2023-04-15T00:03:20.585Z,4.53
2023-04-15T00:06:23.674Z,4.54
2023-04-15T00:09:26.664Z,4.55
2023-04-15T00:12:30.990Z,4.51
2023-04-15T00:15:33.766Z,4.51
2023-04-15T00:18:37.501Z,4.53
2023-04-15T00:21:40.229Z,4.51
2023-04-15T00:24:43.144Z,4.50
2023-04-15T00:27:45.817Z,4.51
2023-04-15T00:30:50.708Z,4.50
2023-04-15T00:33:53.574Z,4.49
2023-04-15T00:36:57.287Z,4.48
2023-04-15T00:40:00.019Z,4.46
2023-04-15T00:43:02.623Z,4.49
2023-04-15T00:46:06.250Z,4.49
2023-04-15T00:49:08.843Z,4.48
2023-04-15T00:52:11.686Z,4.48
2023-04-15T00:55:14.427Z,4.51
2023-04-15T00:58:17.393Z,4.47
2023-04-15T01:01:21.994Z,4.50
2023-04-15T01:04:25.492Z,4.49
2023-04-15T01:07:28.036Z,4.50
2023-04-15T01:10:31.646Z,4.49
2023-04-15T01:13:34.684Z,4.51
2023-04-15T01:16:39.831Z,4.52
2023-04-15T01:19:42.851Z,4.52
2023-04-15T01:22:46.548Z,4.51
2023-04-15T01:25:49.931Z,4.52
2023-04-15T01:28:52.736Z,4.52
2023-04-15T01:31:57.603Z,4.51
2023-04-15T01:35:02.279Z,4.50
2023-04-15T01:38:09.224Z,4.50
2023-04-15T01:41:14.309Z,4.50
2023-04-15T01:44:17.619Z,4.51
2023-04-15T01:47:20.677Z,4.49
2023-04-15T01:50:23.388Z,4.48
2023-04-15T01:53:26.315Z,4.47
2023-04-15T01:56:28.955Z,4.50
2023-04-15T01:59:32.280Z,4.48
2023-04-15T02:02:34.900Z,4.51
2023-04-15T02:05:37.812Z,4.51
2023-04-15T02:08:40.296Z,4.48
2023-04-15T02:11:43.518Z,4.50
2023-04-15T02:14:46.243Z,4.52
2023-04-15T02:17:51.188Z,4.52
2023-04-15T02:20:53.745Z,4.53
2023-04-15T02:23:57.194Z,4.54
2023-04-15T02:26:59.724Z,4.52
2023-04-15T02:30:03.215Z,4.53
2023-04-15T02:33:05.846Z,4.54
2023-04-15T02:36:09.520Z,4.53
2023-04-15T02:39:12.797Z,4.53
2023-04-15T02:42:15.621Z,4.55
2023-04-15T02:45:20.418Z,4.56
2023-04-15T02:48:23.327Z,4.56
2023-04-15T02:51:25.968Z,4.58
2023-04-15T02:54:29.619Z,4.58
2023-04-15T02:57:32.303Z,4.59
2023-04-15T03:00:35.423Z,4.56
2023-04-15T03:03:38.087Z,4.59
2023-04-15T03:06:46.515Z,4.59
2023-04-15T03:09:49.051Z,4.59
2023-04-15T03:12:52.004Z,4.60
2023-04-15T03:15:55.033Z,4.61
2023-04-15T03:18:58.379Z,4.62
2023-04-15T03:22:01.204Z,4.65
2023-04-15T03:25:04.382Z,4.62
2023-04-15T03:28:08.323Z,4.65
2023-04-15T03:31:11.216Z,4.67
2023-04-15T03:34:13.660Z,4.68
2023-04-15T03:37:16.626Z,4.69
2023-04-15T03:40:19.181Z,4.70
2023-04-15T03:43:22.034Z,4.73
2023-04-15T03:46:24.715Z,4.75
2023-04-15T03:49:27.482Z,4.74
2023-04-15T03:52:29.894Z,4.75
2023-04-15T03:55:32.639Z,4.76
2023-04-15T03:58:35.264Z,4.77
2023-04-15T04:01:38.233Z,4.79
2023-04-15T04:04:41.102Z,4.79
2023-04-15T04:07:43.612Z,4.81
2023-04-15T04:10:46.525Z,4.83
2023-04-15T04:13:49.042Z,4.82
2023-04-15T04:16:51.809Z,4.83
2023-04-15T04:19:54.866Z,4.85
2023-04-15T04:22:58.074Z,4.87
2023-04-15T04:26:00.501Z,4.88
2023-04-15T04:29:03.697Z,4.89
2023-04-15T04:32:07.015Z,4.90
2023-04-15T04:35:10.000Z,4.91
2023-04-15T04:38:12.448Z,4.93
2023-04-15T04:41:15.269Z,4.93
2023-04-15T04:44:17.873Z,4.94
2023-04-15T04:47:20.732Z,4.97
2023-04-15T04:50:23.326Z,4.98
2023-04-15T04:53:26.417Z,5.03
2023-04-15T04:56:28.887Z,5.07
2023-04-15T04:59:32.176Z,5.14
2023-04-15T05:02:35.191Z,5.18
2023-04-15T05:05:41.113Z,5.23
2023-04-15T05:08:43.611Z,5.24
2023-04-15T05:11:46.610Z,5.28
2023-04-15T05:14:49.083Z,5.32
2023-04-15T05:17:51.879Z,5.36
2023-04-15T05:20:54.674Z,5.39
2023-04-15T05:23:57.658Z,5.43
2023-04-15T05:27:01.914Z,5.43
2023-04-15T05:30:05.504Z,5.49
2023-04-15T05:33:08.083Z,5.50
2023-04-15T05:36:10.913Z,5.54
2023-04-15T05:39:13.700Z,5.53
2023-04-15T05:42:16.796Z,5.57
2023-04-15T05:45:19.340Z,5.58
2023-04-15T05:48:22.093Z,5.62
2023-04-15T05:51:24.582Z,5.72
2023-04-15T05:54:27.899Z,5.81
2023-04-15T05:57:30.434Z,5.84
2023-04-15T06:00:33.808Z,5.88
2023-04-15T06:03:36.669Z,6.00
2023-04-15T06:06:39.216Z,6.19
2023-04-15T06:09:42.063Z,6.35
2023-04-15T06:12:44.719Z,6.45
2023-04-15T06:15:47.527Z,6.58
2023-04-15T06:18:49.938Z,6.55
2023-04-15T06:21:52.815Z,6.58
2023-04-15T06:24:55.332Z,6.58
2023-04-15T06:27:58.153Z,6.68
2023-04-15T06:31:01.985Z,6.52
2023-04-15T06:34:04.700Z,6.79
2023-04-15T06:37:07.254Z,6.57
2023-04-15T06:40:11.225Z,6.62
2023-04-15T06:43:13.881Z,6.70
2023-04-15T06:46:16.743Z,6.78
2023-04-15T06:49:19.568Z,6.79
2023-04-15T06:52:22.333Z,6.92
2023-04-15T06:55:24.834Z,6.81
2023-04-15T06:58:27.626Z,6.81
2023-04-15T07:01:30.674Z,6.78
2023-04-15T07:04:34.003Z,6.96
2023-04-15T07:07:36.805Z,7.06
2023-04-15T07:10:39.812Z,7.14
2023-04-15T07:13:42.396Z,7.21
2023-04-15T07:16:45.224Z,7.29
2023-04-15T07:19:47.994Z,7.10
2023-04-15T07:22:50.748Z,7.22
2023-04-15T07:25:53.618Z,7.27
2023-04-15T07:28:56.795Z,7.23
2023-04-15T07:31:59.377Z,7.40
2023-04-15T07:35:03.663Z,7.49
2023-04-15T07:38:06.198Z,7.41
2023-04-15T07:41:09.249Z,7.45
2023-04-15T07:44:11.775Z,7.37
2023-04-15T07:47:14.584Z,7.68
2023-04-15T07:50:17.617Z,7.92
2023-04-15T07:53:20.683Z,7.94
2023-04-15T07:56:23.574Z,8.14
2023-04-15T07:59:30.038Z,8.22
2023-04-15T08:02:33.468Z,8.46
2023-04-15T08:05:36.318Z,8.78
2023-04-15T08:08:39.021Z,8.81
2023-04-15T08:11:42.371Z,9.08
2023-04-15T08:14:44.809Z,9.15
2023-04-15T08:17:47.770Z,9.68
2023-04-15T08:20:50.288Z,10.19
2023-04-15T08:23:53.763Z,10.51
2023-04-15T08:26:57.664Z,10.25
2023-04-15T08:30:02.139Z,10.04
2023-04-15T08:33:07.098Z,10.89
2023-04-15T08:36:09.899Z,11.08
2023-04-15T08:39:12.718Z,10.91
2023-04-15T08:42:22.364Z,10.69
2023-04-15T08:45:25.091Z,10.00
2023-04-15T08:48:29.377Z,10.17
2023-04-15T08:51:32.248Z,10.24
2023-04-15T08:54:36.569Z,10.05
2023-04-15T08:57:39.996Z,10.01
2023-04-15T09:00:43.068Z,9.53
2023-04-15T09:03:46.031Z,9.30
2023-04-15T09:06:49.306Z,8.96
2023-04-15T09:09:52.376Z,9.06
2023-04-15T09:12:56.472Z,9.01
2023-04-15T09:15:58.914Z,8.89
2023-04-15T09:19:02.154Z,9.05
2023-04-15T09:22:05.031Z,9.22
2023-04-15T09:25:23.112Z,9.62
2023-04-15T09:28:28.805Z,10.26
2023-04-15T09:31:32.167Z,10.39
2023-04-15T09:34:38.119Z,10.33
2023-04-15T09:37:41.223Z,10.23
2023-04-15T09:40:43.723Z,10.33
2023-04-15T09:43:46.473Z,10.03
2023-04-15T09:46:48.944Z,10.44
2023-04-15T09:49:59.306Z,10.63
2023-04-15T09:53:03.679Z,11.93
2023-04-15T09:56:08.893Z,12.41
2023-04-15T09:59:11.369Z,12.75
2023-04-15T10:02:14.472Z,12.15
2023-04-15T10:05:18.173Z,12.15
2023-04-15T10:08:22.595Z,12.56
2023-04-15T10:11:30.334Z,12.32
2023-04-15T10:14:35.634Z,12.37
2023-04-15T10:17:39.031Z,11.91
2023-04-15T10:20:42.220Z,11.79
2023-04-15T10:23:45.993Z,11.53
2023-04-15T10:26:48.690Z,12.09
2023-04-15T10:29:51.623Z,11.09
2023-04-15T10:32:54.469Z,11.11
2023-04-15T10:35:57.966Z,11.03
2023-04-15T10:39:00.456Z,9.98
2023-04-15T10:42:08.314Z,9.18
2023-04-15T10:45:17.793Z,9.02
2023-04-15T10:48:22.822Z,8.71
2023-04-15T10:51:31.057Z,8.92
2023-04-15T10:54:36.256Z,8.79
2023-04-15T10:57:40.684Z,8.67
2023-04-15T11:00:52.323Z,8.57
2023-04-15T11:04:02.061Z,8.21
2023-04-15T11:07:06.842Z,8.30
2023-04-15T11:10:18.148Z,8.32
2023-04-15T11:13:22.716Z,8.38
2023-04-15T11:16:25.311Z,8.28
2023-04-15T11:19:36.114Z,8.27
2023-04-15T11:22:38.781Z,8.42
2023-04-15T11:25:41.884Z,8.45
2023-04-15T11:28:45.606Z,8.56
2023-04-15T11:31:51.706Z,8.44
2023-04-15T11:34:54.207Z,8.51
2023-04-15T11:37:57.283Z,8.48
2023-04-15T11:40:59.888Z,8.59
2023-04-15T11:44:02.907Z,8.99
2023-04-15T11:47:23.235Z,9.16
2023-04-15T11:50:25.984Z,9.15
2023-04-15T11:53:38.258Z,9.69
2023-04-15T11:56:41.020Z,10.00
2023-04-15T11:59:45.785Z,9.79
2023-04-15T12:02:49.444Z,10.58
2023-04-15T12:06:14.033Z,10.20
2023-04-15T12:09:20.345Z,11.50
2023-04-15T12:12:27.780Z,11.50
2023-04-15T12:15:30.349Z,11.34
2023-04-15T12:18:33.242Z,11.22
2023-04-15T12:21:38.193Z,11.27
2023-04-15T12:24:43.983Z,10.60
2023-04-15T12:27:52.145Z,10.76
2023-04-15T12:30:54.979Z,10.50
2023-04-15T12:33:58.900Z,10.19
2023-04-15T12:40:10.099Z,10.46
2023-04-15T12:43:12.800Z,10.27
2023-04-15T12:46:15.851Z,10.34
2023-04-15T12:49:20.985Z,10.24
2023-04-15T12:52:24.459Z,10.14
2023-04-15T12:55:27.760Z,10.10
2023-04-15T12:58:30.201Z,10.17
2023-04-15T13:01:33.201Z,9.90
2023-04-15T13:04:35.843Z,10.32
2023-04-15T13:07:39.072Z,10.53
2023-04-15T13:10:42.571Z,10.66
2023-04-15T13:13:45.614Z,10.80
2023-04-15T13:16:48.358Z,11.25
2023-04-15T13:19:51.371Z,11.42
2023-04-15T13:22:54.223Z,11.30
2023-04-15T13:25:57.228Z,11.05
2023-04-15T13:28:59.930Z,11.30
2023-04-15T13:32:02.906Z,11.27
2023-04-15T13:35:05.823Z,11.25
2023-04-15T13:38:08.601Z,10.61
2023-04-15T13:41:11.284Z,11.00
2023-04-15T13:44:14.717Z,11.85
2023-04-15T13:47:18.049Z,11.75
2023-04-15T13:50:20.910Z,11.98
2023-04-15T13:53:33.934Z,11.85
2023-04-15T13:56:41.995Z,11.66
2023-04-15T13:59:44.664Z,11.48
2023-04-15T14:02:48.261Z,11.51
2023-04-15T14:05:55.916Z,11.31
2023-04-15T14:08:58.481Z,11.31
2023-04-15T14:12:02.329Z,11.24
2023-04-15T14:15:05.375Z,11.18
2023-04-15T14:18:08.435Z,11.23
2023-04-15T14:21:11.041Z,11.34
2023-04-15T14:24:13.870Z,10.88
2023-04-15T14:27:16.788Z,11.74
2023-04-15T14:30:20.065Z,11.70
2023-04-15T14:33:23.016Z,11.84
2023-04-15T14:36:27.205Z,11.46
2023-04-15T14:39:30.088Z,11.45
2023-04-15T14:42:33.026Z,11.43
2023-04-15T14:45:36.359Z,11.52
2023-04-15T14:48:39.131Z,11.41
2023-04-15T14:51:41.883Z,11.10
2023-04-15T14:54:44.795Z,10.69
2023-04-15T14:57:47.603Z,10.38
2023-04-15T15:00:50.412Z,10.28
2023-04-15T15:03:53.069Z,10.32
2023-04-15T15:06:55.925Z,10.31
2023-04-15T15:09:58.482Z,10.37
2023-04-15T15:13:03.851Z,10.33
2023-04-15T15:16:06.847Z,10.28
2023-04-15T15:19:10.653Z,10.38
2023-04-15T15:22:13.385Z,10.48
2023-04-15T15:25:16.431Z,10.52
2023-04-15T15:28:19.140Z,10.49
2023-04-15T15:31:22.016Z,10.33
2023-04-15T15:34:24.472Z,10.29
2023-04-15T15:37:27.171Z,10.28
2023-04-15T15:40:29.790Z,10.40
2023-04-15T15:43:32.735Z,10.45
2023-04-15T15:46:35.259Z,10.41
2023-04-15T15:49:38.135Z,10.47
2023-04-15T15:52:41.006Z,10.28
2023-04-15T15:55:44.132Z,10.32
2023-04-15T15:58:49.526Z,10.31
2023-04-15T16:01:52.811Z,10.47
2023-04-15T16:04:55.885Z,10.45
2023-04-15T16:07:58.484Z,10.54
2023-04-15T16:11:01.392Z,10.42
2023-04-15T16:14:04.052Z,10.24
2023-04-15T16:17:07.028Z,10.26
2023-04-15T16:20:09.912Z,10.14
2023-04-15T16:23:15.482Z,9.88
2023-04-15T16:26:18.272Z,9.74
2023-04-15T16:29:21.186Z,9.71
2023-04-15T16:32:24.015Z,9.63
2023-04-15T16:35:26.762Z,9.60
2023-04-15T16:38:29.388Z,9.49
2023-04-15T16:41:34.246Z,9.41
2023-04-15T16:44:37.052Z,9.31
2023-04-15T16:47:39.831Z,9.21
2023-04-15T16:50:42.424Z,9.10
2023-04-15T16:53:45.597Z,8.99
2023-04-15T16:56:48.093Z,8.89
2023-04-15T16:59:51.382Z,8.83
2023-04-15T17:02:55.308Z,8.78
2023-04-15T17:05:58.127Z,8.72
2023-04-15T17:09:01.040Z,8.63
2023-04-15T17:12:04.734Z,8.58
2023-04-15T17:15:08.251Z,8.53
2023-04-15T17:18:12.129Z,8.47
2023-04-15T17:21:16.112Z,8.39
2023-04-15T17:24:18.994Z,8.27
2023-04-15T17:27:21.799Z,8.21
2023-04-15T17:30:24.825Z,8.14
2023-04-15T17:33:56.390Z,8.02
2023-04-15T17:36:51.472Z,7.89
2023-04-15T17:39:54.137Z,7.79
2023-04-15T17:42:58.545Z,7.73
2023-04-15T17:46:01.444Z,7.47
2023-04-15T17:49:06.092Z,7.52
2023-04-15T17:52:14.808Z,7.45
2023-04-15T17:55:17.842Z,7.33
2023-04-15T17:58:20.536Z,7.24
2023-04-15T18:01:23.511Z,7.17
2023-04-15T18:04:26.965Z,7.08
2023-04-15T18:07:29.746Z,6.99
2023-04-15T18:10:33.975Z,6.90
2023-04-15T18:13:36.680Z,6.80
2023-04-15T18:16:40.675Z,6.71
2023-04-15T18:19:43.634Z,6.64
2023-04-15T18:22:46.734Z,6.61
2023-04-15T18:25:49.492Z,6.59
2023-04-15T18:28:52.275Z,6.62
2023-04-15T18:31:55.193Z,6.61
2023-04-15T18:34:58.277Z,6.59
2023-04-15T18:38:01.068Z,6.57
2023-04-15T18:41:05.478Z,6.52
2023-04-15T18:44:08.821Z,6.47
2023-04-15T18:47:11.660Z,6.46
2023-04-15T18:50:14.382Z,6.46
2023-04-15T18:53:17.365Z,6.46
2023-04-15T18:56:20.008Z,6.42
2023-04-15T18:59:30.243Z,6.40
2023-04-15T19:02:33.546Z,6.31
2023-04-15T19:05:37.120Z,6.30
2023-04-15T19:08:40.307Z,6.29
2023-04-15T19:11:43.802Z,6.30
2023-04-15T19:14:46.423Z,6.25
2023-04-15T19:17:49.565Z,6.12
2023-04-15T19:20:55.809Z,6.06
2023-04-15T19:23:59.037Z,5.98
2023-04-15T19:27:02.182Z,5.89
2023-04-15T19:30:06.999Z,5.75
2023-04-15T19:33:09.852Z,5.62
2023-04-15T19:36:12.954Z,5.52
2023-04-15T19:39:15.866Z,5.41
2023-04-15T19:42:18.958Z,5.31
2023-04-15T19:45:21.657Z,5.23
2023-04-15T19:48:25.470Z,5.15
2023-04-15T19:51:28.649Z,5.06
2023-04-15T19:54:32.433Z,5.07
2023-04-15T19:57:35.199Z,5.05
2023-04-15T20:00:38.678Z,5.08
2023-04-15T20:03:42.336Z,5.05
2023-04-15T20:06:45.436Z,5.07
2023-04-15T20:09:48.366Z,5.07
2023-04-15T20:12:53.152Z,5.06
2023-04-15T20:15:56.562Z,5.05
2023-04-15T20:19:04.148Z,5.06
2023-04-15T20:22:07.237Z,5.00
2023-04-15T20:25:10.154Z,4.97
2023-04-15T20:28:13.322Z,4.90
2023-04-15T20:31:16.152Z,4.92
2023-04-15T20:34:19.101Z,5.06
2023-04-15T20:37:22.433Z,5.18
2023-04-15T20:40:26.042Z,5.16
2023-04-15T20:43:28.593Z,5.16
2023-04-15T20:46:31.529Z,5.18
2023-04-15T20:49:35.495Z,5.19
2023-04-15T20:52:39.065Z,5.14
2023-04-15T20:55:41.810Z,5.08
2023-04-15T20:58:44.640Z,5.05
2023-04-15T21:01:47.474Z,5.11
2023-04-15T21:04:50.633Z,5.23
2023-04-15T21:07:54.115Z,5.30
2023-04-15T21:10:57.514Z,5.31
2023-04-15T21:14:00.102Z,5.27
2023-04-15T21:17:11.113Z,5.24
2023-04-15T21:20:14.237Z,5.18
2023-04-15T21:23:17.032Z,5.15
2023-04-15T21:26:19.502Z,5.12
2023-04-15T21:29:25.881Z,5.12
2023-04-15T21:32:30.485Z,5.09
2023-04-15T21:35:33.337Z,5.06
2023-04-15T21:38:35.802Z,5.07
2023-04-15T21:41:38.652Z,5.13
2023-04-15T21:44:41.437Z,5.11
2023-04-15T21:48:01.170Z,5.12
2023-04-15T21:51:06.767Z,5.16
2023-04-15T21:54:09.550Z,5.20
2023-04-15T21:57:12.020Z,5.22
2023-04-15T22:00:15.585Z,5.27
2023-04-15T22:03:18.483Z,5.30
2023-04-15T22:06:21.453Z,5.33
2023-04-15T22:09:24.287Z,5.33
2023-04-15T22:12:26.837Z,5.32
2023-04-15T22:15:29.565Z,5.35
2023-04-15T22:18:32.337Z,5.35
2023-04-15T22:21:35.510Z,5.32
2023-04-15T22:24:40.305Z,5.31
2023-04-15T22:27:43.438Z,5.31
2023-04-15T22:30:46.098Z,5.33
2023-04-15T22:33:49.149Z,5.29
2023-04-15T22:36:52.439Z,5.25
2023-04-15T22:39:55.493Z,5.22
2023-04-15T22:42:58.167Z,5.21
2023-04-15T22:46:01.328Z,5.19
2023-04-15T22:49:08.823Z,5.18
2023-04-15T22:52:17.108Z,5.14
2023-04-15T22:55:26.143Z,5.13
2023-04-15T22:58:28.986Z,5.15
2023-04-15T23:01:32.354Z,5.11
2023-04-15T23:04:35.702Z,5.05
2023-04-15T23:07:38.313Z,4.99
2023-04-15T23:10:41.159Z,4.94
2023-04-15T23:13:43.577Z,4.88
2023-04-15T23:16:46.796Z,4.82
2023-04-15T23:19:49.295Z,4.73
2023-04-15T23:22:52.386Z,4.63
2023-04-15T23:25:54.929Z,4.56
2023-04-15T23:28:57.681Z,4.46
2023-04-15T23:32:00.600Z,4.36
2023-04-15T23:35:03.693Z,4.25
2023-04-15T23:38:06.446Z,4.19
2023-04-15T23:41:10.010Z,4.17
2023-04-15T23:44:12.841Z,4.11
2023-04-15T23:47:15.704Z,4.06
2023-04-15T23:50:18.127Z,4.16
2023-04-15T23:53:21.028Z,4.14
2023-04-15T23:56:23.541Z,4.02
2023-04-15T23:59:26.543Z,4.01
